Terminal Aerodrome Forecast
Issued by NWS Binghamton, NY

Home | Current Version | Previous Version | Text Only | Print | Product List | Glossary On
Versions: 1 2 3 4 5 6 7 8 9 10 11 12 13 14 15 16 17 18 19 20
000
FTUS41 KBGM 250847 AAB
TAFSYR
TAF AMD
KSYR 250847Z 2509/2606 28003KT 5SM -RA BR OVC004
     FM251000 36003KT 2SM -RA BR OVC008
     FM251300 02003KT 4SM -RA BR BKN035
     FM251900 VRB04KT P6SM OVC025=

USA.gov is the U.S. government's official web portal to all federal, state and local government web resources and services.